Overview Statistics Trail Chart Weather Telemetry Raw packets
 

This is the latest recevied weather packets stored in our database for station/object HOWARD. If no packets are shown the sender has not sent any weather packets the latest 10 day(s).

<< 55 56 57 58 59 60 61 >>
Time Temp. Humidity Pressure Rain* Wind** Luminosity Snow
1787873676 17.78° C 35% 1019.2 hPa 0 mm - - -
1787873079 18.33° C 40% 1019.3 hPa 0 mm - - -
1787872477 18.33° C 38% 1019.4 hPa 0 mm - - -
1787871876 18.33° C 33% 1019.6 hPa 0 mm - - -
1787871331 18.89° C 37% 1019.5 hPa 0 mm - - -
1787871276 18.89° C 37% 1019.5 hPa 0 mm - - -
1787870676 18.89° C 30% 1019.5 hPa 0 mm - - -
1787870134 18.33° C 35% 1019.7 hPa 0 mm - - -
1787870076 18.33° C 35% 1019.7 hPa 0 mm - - -
1787869476 18.33° C 38% 1019.6 hPa 0 mm - - -
1787868982 17.78° C 40% 1019.7 hPa 0 mm - - -
1787868876 17.78° C 40% 1019.7 hPa 0 mm - - -
1787868276 18.33° C 39% 1019.7 hPa 0 mm - - -
1787867676 18.33° C 39% 1019.8 hPa 0 mm - - -
1787867290 17.78° C 40% 1019.7 hPa 0 mm - - -
1787867076 17.78° C 40% 1019.7 hPa 0 mm - - -
1787866587 18.33° C 37% 1019.7 hPa 0 mm - - -
1787866476 18.33° C 37% 1019.7 hPa 0 mm - - -
1787865876 17.78° C 40% 1019.7 hPa 0 mm - - -
1787865276 18.33° C 31% 1019.7 hPa 0 mm - - -
1787864676 17.22° C 38% 1019.9 hPa 0 mm - - -
1787864076 18.33° C 34% 1020 hPa 0 mm - - -
1787863476 19.44° C 19% 1019.9 hPa 0 mm - - -
1787862876 18.33° C 17% 1019.1 hPa 0 mm - - -
1787862276 18.33° C 22% 1019.9 hPa 0 mm - - -

* Rain latest hour (hover to see other rain measurements)
** Current wind speed in m/s (hover to see current wind gust speed)